createdAt,value
2019-03-18T00:01:15.497Z,8.09
2019-03-18T00:03:46.891Z,8.15
2019-03-18T00:06:17.943Z,8.00
2019-03-18T00:08:49.887Z,7.97
2019-03-18T00:11:21.116Z,7.99
2019-03-18T00:13:52.341Z,7.97
2019-03-18T00:16:23.892Z,8.02
2019-03-18T00:18:54.935Z,7.79
2019-03-18T00:21:25.920Z,7.76
2019-03-18T00:23:57.857Z,7.84
2019-03-18T00:26:30.610Z,7.87
2019-03-18T00:29:02.462Z,7.84
2019-03-18T00:31:33.543Z,7.80
2019-03-18T00:34:04.621Z,7.94
2019-03-18T00:36:36.221Z,7.88
2019-03-18T00:39:09.397Z,7.75
2019-03-18T00:41:40.462Z,7.74
2019-03-18T00:44:11.804Z,7.69
2019-03-18T00:46:43.249Z,7.69
2019-03-18T00:49:14.545Z,7.64
2019-03-18T00:51:45.560Z,7.41
2019-03-18T00:54:16.529Z,7.50
2019-03-18T00:56:48.148Z,7.52
2019-03-18T00:59:20.993Z,7.47
2019-03-18T01:01:51.958Z,7.47
2019-03-18T01:04:22.947Z,7.48
2019-03-18T01:06:53.916Z,7.61
2019-03-18T01:09:25.187Z,7.70
2019-03-18T01:11:56.158Z,7.54
2019-03-18T01:14:27.793Z,7.64
2019-03-18T01:16:59.343Z,7.66
2019-03-18T01:19:30.313Z,7.64
2019-03-18T01:22:02.766Z,7.70
2019-03-18T01:24:34.086Z,7.72
2019-03-18T01:27:05.521Z,7.82
2019-03-18T01:29:36.510Z,7.72
2019-03-18T01:32:07.510Z,7.77
2019-03-18T01:34:38.987Z,7.68
2019-03-18T01:37:09.946Z,7.84
2019-03-18T01:39:41.444Z,7.83
2019-03-18T01:42:12.487Z,7.65
2019-03-18T01:44:43.711Z,7.60
2019-03-18T01:47:14.969Z,7.59
2019-03-18T01:49:46.162Z,7.52
2019-03-18T01:52:17.527Z,7.51
2019-03-18T01:54:48.510Z,7.56
2019-03-18T01:57:20.704Z,7.60
2019-03-18T01:59:52.783Z,7.54
2019-03-18T02:02:23.831Z,7.53
2019-03-18T02:04:55.275Z,7.45
2019-03-18T02:07:27.499Z,7.40
2019-03-18T02:10:00.815Z,7.35
2019-03-18T02:12:33.075Z,7.39
2019-03-18T02:15:18.823Z,7.43
2019-03-18T02:17:53.199Z,7.18
2019-03-18T02:20:24.430Z,7.15
2019-03-18T02:22:55.703Z,7.18
2019-03-18T02:25:26.673Z,7.24
2019-03-18T02:27:57.704Z,7.29
2019-03-18T02:30:29.079Z,7.37
2019-03-18T02:33:00.076Z,7.19
2019-03-18T02:35:31.079Z,7.19
2019-03-18T02:38:02.719Z,7.19
2019-03-18T02:40:34.006Z,7.11
2019-03-18T02:43:05.206Z,7.07
2019-03-18T02:45:36.493Z,7.17
2019-03-18T02:48:07.865Z,7.30
2019-03-18T02:50:38.870Z,7.26
2019-03-18T02:53:09.841Z,7.32
2019-03-18T02:55:41.059Z,7.33
2019-03-18T02:58:12.461Z,7.34
2019-03-18T03:00:43.517Z,7.31
2019-03-18T03:03:14.868Z,7.20
2019-03-18T03:05:45.889Z,7.23
2019-03-18T03:08:17.403Z,7.35
2019-03-18T03:10:48.475Z,7.20
2019-03-18T03:13:21.020Z,7.28
2019-03-18T03:15:52.085Z,7.29
2019-03-18T03:18:24.142Z,7.20
2019-03-18T03:20:55.205Z,7.23
2019-03-18T03:23:26.552Z,7.28
2019-03-18T03:25:57.610Z,7.38
2019-03-18T03:28:29.011Z,7.26
2019-03-18T03:31:00.247Z,7.15
2019-03-18T03:33:31.242Z,7.31
2019-03-18T03:36:02.902Z,7.27
2019-03-18T03:38:34.108Z,7.15
2019-03-18T03:43:36.790Z,7.39
2019-03-18T03:46:08.049Z,7.42
2019-03-18T03:48:39.051Z,7.39
2019-03-18T03:51:10.635Z,7.41
2019-03-18T03:53:41.859Z,7.55
2019-03-18T03:56:12.849Z,7.39
2019-03-18T03:58:44.231Z,7.43
2019-03-18T04:01:15.279Z,7.41
2019-03-18T04:03:46.837Z,7.44
2019-03-18T04:06:18.214Z,7.42
2019-03-18T04:08:49.782Z,7.52
2019-03-18T04:11:21.454Z,7.57
2019-03-18T04:13:53.391Z,7.44
2019-03-18T04:16:24.953Z,7.52
2019-03-18T04:18:56.736Z,7.45
2019-03-18T04:21:28.272Z,7.51
2019-03-18T04:23:59.586Z,7.45
2019-03-18T04:26:31.460Z,7.47
2019-03-18T04:29:03.033Z,7.51
2019-03-18T04:31:34.481Z,7.56
2019-03-18T04:34:05.922Z,7.61
2019-03-18T04:36:37.479Z,7.67
2019-03-18T04:39:09.111Z,7.58
2019-03-18T04:41:40.354Z,7.50
2019-03-18T04:44:11.860Z,7.36
2019-03-18T04:46:42.957Z,7.49
2019-03-18T04:49:14.226Z,7.50
2019-03-18T04:51:45.779Z,7.40
2019-03-18T04:54:17.002Z,7.45
2019-03-18T04:56:48.891Z,7.42
2019-03-18T04:59:21.156Z,7.45
2019-03-18T05:01:52.478Z,7.39
2019-03-18T05:04:23.944Z,7.45
2019-03-18T05:06:55.950Z,7.40
2019-03-18T05:09:28.057Z,7.35
2019-03-18T05:11:59.038Z,7.31
2019-03-18T05:14:30.067Z,7.43
2019-03-18T05:17:01.709Z,7.44
2019-03-18T05:19:33.518Z,7.53
2019-03-18T05:22:04.653Z,7.46
2019-03-18T05:24:35.735Z,7.49
2019-03-18T05:27:06.833Z,7.42
2019-03-18T05:29:38.668Z,7.40
2019-03-18T05:32:10.623Z,7.46
2019-03-18T05:34:42.583Z,7.53
2019-03-18T05:37:13.860Z,7.50
2019-03-18T05:39:45.084Z,7.62
2019-03-18T05:42:16.418Z,7.64
2019-03-18T05:44:47.814Z,7.59
2019-03-18T05:47:19.442Z,7.52
2019-03-18T05:49:53.690Z,7.56
2019-03-18T05:52:28.774Z,7.55
2019-03-18T05:55:00.056Z,7.62
2019-03-18T05:57:31.361Z,7.60
2019-03-18T06:00:03.248Z,7.52
2019-03-18T06:02:34.887Z,7.37
2019-03-18T06:05:07.433Z,7.41
2019-03-18T06:07:39.111Z,7.32
2019-03-18T06:10:11.111Z,7.31
2019-03-18T06:12:42.464Z,7.37
2019-03-18T06:15:13.707Z,7.44
2019-03-18T06:17:52.291Z,7.26
2019-03-18T06:20:17.628Z,7.38
2019-03-18T06:22:48.919Z,7.42
2019-03-18T06:25:21.403Z,7.50
2019-03-18T06:27:52.509Z,7.59
2019-03-18T06:30:23.550Z,7.68
2019-03-18T06:32:54.883Z,7.73
2019-03-18T06:35:26.203Z,7.73
2019-03-18T06:37:57.694Z,7.76
2019-03-18T06:40:29.010Z,7.88
2019-03-18T06:42:59.987Z,7.83
2019-03-18T06:45:31.594Z,7.79
2019-03-18T06:48:05.315Z,7.89
2019-03-18T06:50:37.024Z,7.89
2019-03-18T06:53:08.019Z,7.89
2019-03-18T06:55:39.316Z,7.95
2019-03-18T06:58:10.804Z,8.00
2019-03-18T07:00:41.773Z,7.93
2019-03-18T07:03:12.809Z,7.79
2019-03-18T07:05:46.086Z,7.83
2019-03-18T07:08:16.536Z,7.93
2019-03-18T07:10:47.882Z,7.85
2019-03-18T07:13:19.210Z,7.95
2019-03-18T07:15:50.670Z,8.00
2019-03-18T07:18:21.713Z,8.05
2019-03-18T07:20:53.240Z,8.09
2019-03-18T07:23:24.692Z,8.01
2019-03-18T07:25:55.660Z,8.12
2019-03-18T07:28:26.979Z,8.22
2019-03-18T07:30:58.251Z,8.31
2019-03-18T07:33:30.118Z,8.38
2019-03-18T07:36:01.746Z,8.30
2019-03-18T07:38:33.834Z,8.29
2019-03-18T07:41:05.279Z,8.26
2019-03-18T07:43:36.987Z,8.46
2019-03-18T07:46:08.289Z,8.55
2019-03-18T07:48:39.528Z,8.46
2019-03-18T07:51:10.581Z,8.56
2019-03-18T07:53:41.509Z,8.65
2019-03-18T07:56:12.482Z,8.61
2019-03-18T07:58:43.790Z,8.53
2019-03-18T08:01:15.205Z,8.51
2019-03-18T08:03:46.460Z,8.58
2019-03-18T08:06:17.745Z,8.57
2019-03-18T08:08:49.032Z,8.39
2019-03-18T08:11:20.499Z,7.94
2019-03-18T08:13:51.762Z,8.04
2019-03-18T08:16:23.107Z,7.87
2019-03-18T08:18:54.510Z,7.97
2019-03-18T08:21:26.290Z,7.85
2019-03-18T08:23:57.627Z,7.90
2019-03-18T08:26:29.265Z,7.97
2019-03-18T08:29:00.281Z,7.88
2019-03-18T08:31:31.243Z,7.88
2019-03-18T08:34:03.616Z,8.16
2019-03-18T08:36:35.248Z,8.23
2019-03-18T08:39:08.376Z,8.34
2019-03-18T08:41:39.985Z,8.34
2019-03-18T08:44:11.568Z,8.57
2019-03-18T08:46:42.733Z,8.70
2019-03-18T08:49:14.059Z,8.89
2019-03-18T08:51:45.544Z,9.08
2019-03-18T08:54:16.651Z,9.20
2019-03-18T08:56:47.685Z,9.33
2019-03-18T08:59:18.767Z,9.50
2019-03-18T09:01:50.312Z,9.53
2019-03-18T09:04:22.069Z,9.42
2019-03-18T09:06:53.358Z,9.52
2019-03-18T09:09:24.691Z,9.34
2019-03-18T09:11:55.667Z,9.48
2019-03-18T09:14:26.900Z,9.49
2019-03-18T09:16:57.961Z,9.54
2019-03-18T09:19:29.270Z,9.60
2019-03-18T09:22:00.607Z,9.69
2019-03-18T09:24:31.900Z,9.61
2019-03-18T09:27:04.095Z,9.62
2019-03-18T09:29:35.392Z,9.50
2019-03-18T09:32:06.446Z,9.55
2019-03-18T09:34:37.772Z,9.60
2019-03-18T09:37:09.343Z,9.65
2019-03-18T09:39:40.587Z,9.75
2019-03-18T09:42:11.630Z,9.84
2019-03-18T09:44:42.803Z,9.96
2019-03-18T09:47:14.427Z,10.08
2019-03-18T09:49:45.404Z,10.14
2019-03-18T09:52:16.370Z,10.22
2019-03-18T09:54:47.668Z,10.31
2019-03-18T09:57:26.005Z,10.34
2019-03-18T09:59:52.177Z,10.38
2019-03-18T10:02:23.259Z,10.46
2019-03-18T10:04:54.625Z,10.36
2019-03-18T10:07:25.848Z,10.37
2019-03-18T10:09:57.148Z,10.63
2019-03-18T10:12:28.647Z,10.72
2019-03-18T10:15:00.456Z,10.96
2019-03-18T10:17:31.837Z,11.07
2019-03-18T10:20:06.984Z,11.01
2019-03-18T10:22:38.424Z,10.87
2019-03-18T10:25:09.870Z,10.93
2019-03-18T10:27:40.945Z,11.21
2019-03-18T10:30:12.729Z,11.14
2019-03-18T10:32:44.302Z,10.93
2019-03-18T10:35:15.668Z,11.04
2019-03-18T10:37:46.712Z,11.20
2019-03-18T10:40:17.727Z,11.22
2019-03-18T10:42:48.835Z,11.38
2019-03-18T10:45:19.984Z,11.35
2019-03-18T10:47:51.019Z,11.52
2019-03-18T10:50:22.633Z,11.62
2019-03-18T10:52:54.374Z,11.61
2019-03-18T10:55:25.650Z,11.76
2019-03-18T10:57:56.863Z,11.90
2019-03-18T11:00:27.943Z,12.01
2019-03-18T11:02:59.494Z,11.86
2019-03-18T11:05:30.897Z,11.82
2019-03-18T11:08:01.886Z,11.64
2019-03-18T11:10:34.280Z,11.79
2019-03-18T11:13:05.671Z,11.83
2019-03-18T11:15:36.961Z,11.76
2019-03-18T11:18:08.423Z,12.04
2019-03-18T11:20:39.473Z,11.74
2019-03-18T11:23:10.523Z,11.74
2019-03-18T11:25:41.912Z,11.84
2019-03-18T11:28:13.702Z,12.23
2019-03-18T11:30:45.025Z,12.06
2019-03-18T11:33:16.168Z,12.24
2019-03-18T11:35:47.166Z,12.16
2019-03-18T11:38:18.147Z,12.10
2019-03-18T11:40:49.471Z,12.23
2019-03-18T11:43:20.936Z,12.04
2019-03-18T11:45:52.143Z,11.91
2019-03-18T11:48:23.153Z,12.08
2019-03-18T11:50:54.503Z,12.29
2019-03-18T11:53:25.745Z,12.22
2019-03-18T11:55:57.082Z,12.23
2019-03-18T11:58:28.270Z,12.37
2019-03-18T12:00:59.993Z,12.29
2019-03-18T12:03:30.973Z,12.29
2019-03-18T12:06:02.637Z,12.49
2019-03-18T12:08:34.203Z,12.58
2019-03-18T12:11:05.580Z,12.68
2019-03-18T12:13:37.015Z,12.57
2019-03-18T12:16:09.522Z,12.59
2019-03-18T12:18:40.868Z,12.66
2019-03-18T12:21:12.011Z,12.78
2019-03-18T12:23:43.067Z,12.78
2019-03-18T12:26:14.331Z,12.82
2019-03-18T12:28:45.569Z,12.67
2019-03-18T12:31:16.800Z,12.70
2019-03-18T12:33:48.072Z,12.42
2019-03-18T12:36:19.617Z,12.66
2019-03-18T12:38:51.158Z,12.72
2019-03-18T12:41:22.886Z,12.84
2019-03-18T12:43:54.623Z,13.03
2019-03-18T12:46:26.447Z,13.18
2019-03-18T12:48:57.489Z,12.94
2019-03-18T12:51:28.487Z,12.98
2019-03-18T12:54:00.026Z,12.84
2019-03-18T12:56:31.627Z,12.85
2019-03-18T12:59:02.865Z,12.46
2019-03-18T13:01:34.939Z,12.42
2019-03-18T13:04:06.337Z,12.10
2019-03-18T13:06:37.938Z,12.06
2019-03-18T13:09:09.977Z,11.98
2019-03-18T13:11:40.962Z,11.97
2019-03-18T13:14:11.963Z,12.13
2019-03-18T13:16:43.019Z,12.19
2019-03-18T13:19:14.091Z,12.01
2019-03-18T13:21:45.630Z,12.00
2019-03-18T13:24:16.667Z,12.12
2019-03-18T13:26:47.990Z,12.24
2019-03-18T13:29:19.763Z,12.03
2019-03-18T13:31:51.862Z,11.97
2019-03-18T13:34:22.860Z,12.09
2019-03-18T13:36:54.453Z,11.89
2019-03-18T13:39:25.598Z,11.67
2019-03-18T13:41:56.891Z,11.57
2019-03-18T13:44:27.866Z,11.65
2019-03-18T13:46:58.859Z,11.68
2019-03-18T13:49:30.845Z,11.66
2019-03-18T13:52:02.231Z,11.43
2019-03-18T13:54:35.156Z,11.42
2019-03-18T13:57:06.644Z,11.20
2019-03-18T13:59:37.684Z,11.21
2019-03-18T14:02:09.081Z,10.92
2019-03-18T14:04:40.633Z,10.85
2019-03-18T14:07:12.372Z,10.91
2019-03-18T14:09:43.340Z,10.75
2019-03-18T14:12:15.160Z,10.77
2019-03-18T14:14:46.137Z,10.57
2019-03-18T14:17:17.636Z,10.44
2019-03-18T14:19:49.484Z,10.53
2019-03-18T14:22:20.846Z,10.48
2019-03-18T14:24:52.082Z,10.49
2019-03-18T14:27:23.066Z,10.27
2019-03-18T14:29:54.120Z,10.23
2019-03-18T14:32:25.168Z,10.41
2019-03-18T14:34:56.146Z,10.33
2019-03-18T14:37:27.209Z,10.24
2019-03-18T14:39:58.832Z,10.53
2019-03-18T14:42:29.819Z,10.49
2019-03-18T14:45:01.344Z,10.68
2019-03-18T14:47:32.712Z,10.77
2019-03-18T14:50:06.720Z,10.95
2019-03-18T14:52:37.938Z,11.12
2019-03-18T14:55:10.336Z,11.13
2019-03-18T14:57:41.494Z,11.21
2019-03-18T15:00:16.956Z,11.29
2019-03-18T15:02:48.091Z,11.37
2019-03-18T15:05:19.281Z,10.89
2019-03-18T15:07:50.432Z,11.03
2019-03-18T15:10:22.663Z,11.18
2019-03-18T15:12:53.993Z,11.08
2019-03-18T15:15:25.018Z,11.25
2019-03-18T15:17:56.425Z,11.17
2019-03-18T15:20:27.595Z,11.28
2019-03-18T15:22:58.649Z,11.35
2019-03-18T15:25:29.662Z,11.15
2019-03-18T15:28:01.310Z,11.08
2019-03-18T15:30:32.460Z,11.04
2019-03-18T15:33:05.135Z,10.97
2019-03-18T15:35:36.187Z,10.89
2019-03-18T15:38:07.911Z,11.04
2019-03-18T15:40:39.358Z,10.94
2019-03-18T15:43:11.112Z,10.74
2019-03-18T15:45:42.102Z,10.69
2019-03-18T15:48:13.174Z,10.85
2019-03-18T15:50:44.868Z,10.91
2019-03-18T15:53:15.931Z,10.96
2019-03-18T15:55:47.044Z,10.96
2019-03-18T15:58:18.036Z,11.04
2019-03-18T16:00:49.614Z,10.90
2019-03-18T16:03:21.264Z,10.86
2019-03-18T16:05:52.595Z,10.66
2019-03-18T16:08:23.920Z,10.94
2019-03-18T16:10:54.927Z,10.92
2019-03-18T16:13:26.925Z,10.92
2019-03-18T16:15:58.244Z,10.85
2019-03-18T16:18:29.557Z,10.86
2019-03-18T16:21:00.982Z,10.84
2019-03-18T16:23:32.577Z,10.96
2019-03-18T16:26:04.926Z,10.94
2019-03-18T16:28:36.689Z,10.95
2019-03-18T16:31:08.158Z,10.93
2019-03-18T16:33:39.176Z,10.71
2019-03-18T16:36:10.394Z,10.77
2019-03-18T16:38:41.652Z,10.72
2019-03-18T16:41:12.881Z,10.75
2019-03-18T16:43:44.222Z,10.67
2019-03-18T16:46:15.888Z,10.77
2019-03-18T16:48:47.136Z,10.67
2019-03-18T16:51:18.207Z,10.67
2019-03-18T16:53:50.049Z,10.79
2019-03-18T16:56:21.359Z,10.66
2019-03-18T16:58:53.656Z,10.66
2019-03-18T17:01:24.946Z,10.63
2019-03-18T17:03:56.560Z,10.50
2019-03-18T17:06:28.108Z,10.54
2019-03-18T17:08:59.799Z,10.52
2019-03-18T17:11:30.800Z,10.42
2019-03-18T17:14:01.784Z,10.25
2019-03-18T17:16:32.774Z,10.28
2019-03-18T17:19:04.995Z,10.17
2019-03-18T17:21:36.748Z,10.09
2019-03-18T17:24:08.149Z,9.97
2019-03-18T17:26:40.025Z,9.80
2019-03-18T17:29:11.127Z,9.77
2019-03-18T17:31:42.518Z,9.72
2019-03-18T17:34:14.099Z,9.66
2019-03-18T17:36:45.551Z,9.78
2019-03-18T17:39:16.868Z,9.82
2019-03-18T17:41:48.430Z,9.76
2019-03-18T17:44:19.393Z,9.81
2019-03-18T17:46:51.017Z,9.80
2019-03-18T17:49:23.944Z,9.79
2019-03-18T17:51:55.239Z,9.85
2019-03-18T17:54:26.784Z,9.78
2019-03-18T17:57:07.113Z,9.70
2019-03-18T17:59:30.878Z,9.69
2019-03-18T18:02:01.870Z,9.69
2019-03-18T18:04:32.842Z,9.74
2019-03-18T18:07:05.436Z,9.62
2019-03-18T18:09:36.742Z,9.72
2019-03-18T18:12:09.602Z,9.69
2019-03-18T18:14:40.665Z,9.52
2019-03-18T18:17:11.913Z,9.51
2019-03-18T18:19:42.879Z,9.34
2019-03-18T18:22:13.905Z,9.19
2019-03-18T18:24:45.752Z,9.23
2019-03-18T18:27:19.169Z,9.15
2019-03-18T18:29:50.202Z,9.20
2019-03-18T18:32:21.565Z,9.15
2019-03-18T18:34:52.862Z,9.12
2019-03-18T18:37:23.926Z,9.14
2019-03-18T18:39:55.975Z,9.18
2019-03-18T18:42:27.046Z,9.16
2019-03-18T18:44:58.379Z,9.03
2019-03-18T18:47:30.034Z,8.98
2019-03-18T18:50:01.487Z,8.84
2019-03-18T18:52:32.555Z,8.84
2019-03-18T18:55:03.571Z,8.84
2019-03-18T18:57:35.639Z,8.68
2019-03-18T19:00:09.029Z,8.81
2019-03-18T19:02:42.211Z,8.86
2019-03-18T19:05:14.049Z,9.00
2019-03-18T19:07:45.344Z,8.98
2019-03-18T19:10:16.608Z,8.91
2019-03-18T19:12:47.754Z,8.97
2019-03-18T19:15:20.668Z,8.85
2019-03-18T19:17:51.805Z,8.88
2019-03-18T19:20:24.295Z,8.87
2019-03-18T19:22:55.972Z,8.95
2019-03-18T19:25:27.016Z,9.03
2019-03-18T19:27:58.096Z,9.04
2019-03-18T19:30:29.143Z,9.07
2019-03-18T19:33:00.276Z,9.23
2019-03-18T19:35:31.601Z,9.15
2019-03-18T19:38:02.665Z,9.13
2019-03-18T19:40:33.952Z,9.13
2019-03-18T19:43:05.531Z,9.13
2019-03-18T19:45:36.502Z,9.04
2019-03-18T19:48:07.854Z,8.78
2019-03-18T19:50:39.266Z,8.80
2019-03-18T19:53:10.246Z,8.99
2019-03-18T19:55:41.869Z,8.98
2019-03-18T19:58:13.223Z,8.92
2019-03-18T20:00:44.204Z,8.89
2019-03-18T20:03:15.261Z,8.85
2019-03-18T20:05:46.873Z,8.86
2019-03-18T20:08:18.516Z,8.79
2019-03-18T20:10:50.204Z,8.70
2019-03-18T20:13:21.250Z,8.68
2019-03-18T20:15:52.629Z,8.65
2019-03-18T20:18:23.639Z,8.64
2019-03-18T20:20:56.988Z,8.67
2019-03-18T20:23:27.714Z,8.57
2019-03-18T20:25:59.095Z,8.55
2019-03-18T20:28:30.468Z,8.56
2019-03-18T20:31:01.535Z,8.54
2019-03-18T20:33:32.830Z,8.43
2019-03-18T20:36:03.868Z,8.36
2019-03-18T20:38:35.572Z,8.33
2019-03-18T20:41:06.548Z,8.38
2019-03-18T20:43:37.941Z,8.32
2019-03-18T20:46:08.903Z,8.15
2019-03-18T20:48:40.377Z,8.22
2019-03-18T20:51:11.354Z,8.19
2019-03-18T20:53:42.338Z,8.14
2019-03-18T20:56:13.349Z,8.02
2019-03-18T20:58:44.629Z,7.98
2019-03-18T21:01:15.711Z,7.95
2019-03-18T21:03:46.770Z,7.96
2019-03-18T21:06:18.134Z,7.73
2019-03-18T21:08:49.110Z,7.66
2019-03-18T21:11:20.201Z,7.72
2019-03-18T21:13:57.137Z,7.81
2019-03-18T21:16:24.314Z,7.76
2019-03-18T21:18:55.361Z,7.69
2019-03-18T21:21:26.337Z,7.71
2019-03-18T21:23:57.739Z,7.55
2019-03-18T21:26:28.903Z,7.60
2019-03-18T21:29:12.442Z,7.65
2019-03-18T21:31:43.772Z,7.62
2019-03-18T21:34:14.735Z,7.56
2019-03-18T21:36:46.252Z,7.56
2019-03-18T21:39:18.182Z,7.47
2019-03-18T21:41:49.132Z,7.49
2019-03-18T21:44:20.500Z,7.45
2019-03-18T21:46:51.755Z,7.30
2019-03-18T21:49:24.566Z,7.24
2019-03-18T21:51:55.808Z,7.35
2019-03-18T21:54:33.995Z,7.47
2019-03-18T21:56:59.512Z,7.52
2019-03-18T21:59:31.058Z,7.54
2019-03-18T22:02:02.631Z,7.66
2019-03-18T22:04:33.587Z,7.52
2019-03-18T22:07:05.947Z,7.47
2019-03-18T22:09:37.575Z,7.21
2019-03-18T22:12:09.783Z,7.36
2019-03-18T22:14:41.238Z,7.40
2019-03-18T22:17:12.196Z,7.29
2019-03-18T22:19:44.165Z,7.40
2019-03-18T22:22:15.203Z,7.34
2019-03-18T22:24:46.497Z,7.42
2019-03-18T22:27:18.273Z,7.53
2019-03-18T22:29:49.594Z,7.48
2019-03-18T22:32:20.841Z,7.59
2019-03-18T22:34:52.735Z,7.55
2019-03-18T22:37:24.686Z,7.53
2019-03-18T22:39:56.049Z,7.39
2019-03-18T22:42:27.282Z,7.57
2019-03-18T22:44:59.008Z,7.61
2019-03-18T22:47:29.978Z,7.50
2019-03-18T22:50:02.310Z,7.43
2019-03-18T22:52:33.548Z,7.41
2019-03-18T22:55:08.038Z,7.44
2019-03-18T22:57:40.886Z,7.28
2019-03-18T23:00:21.463Z,7.32
2019-03-18T23:02:54.373Z,7.31
2019-03-18T23:05:25.610Z,7.30
2019-03-18T23:07:57.052Z,7.26
2019-03-18T23:10:28.330Z,7.40
2019-03-18T23:12:59.302Z,7.29
2019-03-18T23:15:32.480Z,7.41
2019-03-18T23:18:03.546Z,7.34
2019-03-18T23:20:34.900Z,7.35
2019-03-18T23:23:06.061Z,7.39
2019-03-18T23:25:37.111Z,7.44
2019-03-18T23:28:08.759Z,7.32
2019-03-18T23:30:40.095Z,7.24
2019-03-18T23:33:11.054Z,7.22
2019-03-18T23:35:42.378Z,7.21
2019-03-18T23:38:14.261Z,7.11
2019-03-18T23:40:45.717Z,7.09
2019-03-18T23:43:17.026Z,7.03
2019-03-18T23:45:48.267Z,6.99
2019-03-18T23:48:19.427Z,6.93
2019-03-18T23:50:50.482Z,6.94
2019-03-18T23:53:22.114Z,6.69
2019-03-18T23:55:53.329Z,6.91
2019-03-18T23:58:25.615Z,6.88
